Time;durP1;ratioP1;P1;durP2;ratioP2;P2;SDS_P1;SDS_P2;PMS_P1;PMS_P2;Temp;Humidity;BMP_temperature;BMP_pressure;BME280_temperature;BME280_humidity;BME280_pressure;Samples;Min_cycle;Max_cycle;Signal;HPM_P1;HPM_P2
2022/10/27 00:00:04;;;;;;;3.00;0.90;;;;;;;18.64;46.69;99856.38;5137751;27;20199;-88
2022/10/27 00:02:29;;;;;;;2.57;1.07;;;;;;;18.65;46.67;99846.59;5137719;27;20217;-88
2022/10/27 00:04:55;;;;;;;2.17;1.00;;;;;;;18.55;46.89;99849.09;5119247;27;20289;-88
2022/10/27 00:07:20;;;;;;;2.57;1.00;;;;;;;18.46;47.23;99856.84;5119226;27;20180;-88
2022/10/27 00:09:45;;;;;;;2.57;1.10;;;;;;;18.38;47.47;99857.41;5119173;27;20190;-88
2022/10/27 00:12:11;;;;;;;3.80;1.50;;;;;;;18.40;47.37;99855.50;5119158;27;20167;-88
2022/10/27 00:14:36;;;;;;;3.50;1.40;;;;;;;18.42;46.71;99856.25;5137195;27;20171;-88
2022/10/27 00:17:02;;;;;;;14.40;1.53;;;;;;;18.46;46.31;99855.06;5137231;27;20171;-88
2022/10/27 00:19:27;;;;;;;3.77;1.37;;;;;;;18.41;46.56;99852.75;5118979;27;20191;-88
2022/10/27 00:21:53;;;;;;;4.57;1.47;;;;;;;18.41;46.31;99855.41;5120053;27;20251;-88
2022/10/27 00:24:19;;;;;;;2.80;1.33;;;;;;;18.30;47.01;99850.00;5137274;27;20242;-88
2022/10/27 00:26:45;;;;;;;5.17;1.40;;;;;;;18.30;46.89;99851.81;5137210;27;20179;-88
2022/10/27 00:29:10;;;;;;;2.83;1.43;;;;;;;18.26;46.31;99856.50;5118756;27;20193;-88
2022/10/27 00:31:36;;;;;;;3.10;1.43;;;;;;;18.28;46.31;99859.91;5117400;28;20570;-88
2022/10/27 00:34:02;;;;;;;3.67;1.20;;;;;;;18.26;46.23;99853.00;5137089;27;20166;-89
2022/10/27 00:36:27;;;;;;;3.57;1.23;;;;;;;18.26;46.08;99860.97;5118637;27;20175;-88
2022/10/27 00:38:54;;;;;;;6.30;1.50;;;;;;;18.17;46.25;99853.66;5137031;27;20526;-89
2022/10/27 00:41:35;;;;;;;2.37;0.77;;;;;;;18.11;46.41;99857.59;5118719;27;20616;-88
2022/10/27 00:44:22;;;;;;;2.30;1.07;;;;;;;18.05;46.37;99857.22;5118712;27;20238;-88
2022/10/27 00:46:48;;;;;;;3.13;1.10;;;;;;;17.98;46.80;99854.13;5118285;27;20550;-88
2022/10/27 00:49:25;;;;;;;7.13;1.30;;;;;;;17.93;46.90;99858.06;5118916;27;20216;-88
2022/10/27 00:52:01;;;;;;;4.43;1.63;;;;;;;17.91;46.54;99860.84;5118331;27;20206;-88
2022/10/27 00:54:31;;;;;;;2.63;1.40;;;;;;;17.80;47.22;99858.94;5137047;27;20190;-88
2022/10/27 00:56:57;;;;;;;3.13;1.37;;;;;;;17.67;47.43;99851.97;5119174;27;20344;-88
2022/10/27 00:59:23;;;;;;;5.10;1.50;;;;;;;17.59;47.57;99857.81;5119168;27;20198;-88
2022/10/27 01:01:51;;;;;;;3.37;1.30;;;;;;;17.55;47.47;99861.63;5136324;27;20167;-88
2022/10/27 01:04:26;;;;;;;5.47;1.60;;;;;;;17.60;46.89;99856.84;5136532;27;20178;-88
2022/10/27 01:06:52;;;;;;;4.20;1.37;;;;;;;17.60;46.84;99856.84;5118975;27;20239;-88
2022/10/27 01:09:18;;;;;;;4.23;1.50;;;;;;;17.54;46.75;99849.31;5119090;27;20171;-89
2022/10/27 01:11:43;;;;;;;4.00;1.33;;;;;;;17.58;46.78;99852.63;5117933;27;20285;-88
2022/10/27 01:14:09;;;;;;;2.70;1.50;;;;;;;17.58;46.57;99850.78;5117953;27;20253;-88
2022/10/27 01:16:57;;;;;;;5.83;2.00;;;;;;;17.48;46.51;99857.66;5118202;27;20278;-88
2022/10/27 01:19:31;;;;;;;3.20;1.20;;;;;;;17.48;46.73;99862.97;5117911;27;20189;-87
2022/10/27 01:21:59;;;;;;;2.73;1.37;;;;;;;17.35;46.92;99872.72;5117828;27;20154;-88
2022/10/27 01:24:40;;;;;;;6.90;1.23;;;;;;;17.32;47.08;99872.91;5135855;27;20198;-88
2022/10/27 01:27:18;;;;;;;3.57;1.50;;;;;;;17.22;47.31;99869.22;5117666;27;20251;-88
2022/10/27 01:30:01;;;;;;;4.40;1.33;;;;;;;17.20;47.44;99865.81;5118386;27;20171;-88
2022/10/27 01:32:42;;;;;;;2.93;1.13;;;;;;;17.11;47.52;99869.94;5117950;27;20175;-88
2022/10/27 01:35:12;;;;;;;2.80;1.30;;;;;;;17.07;47.62;99875.53;5117611;27;20174;-89
2022/10/27 01:37:37;;;;;;;4.03;1.33;;;;;;;17.06;47.71;99876.47;5117493;27;20570;-88
2022/10/27 01:40:06;;;;;;;3.17;1.30;;;;;;;16.99;47.95;99869.91;5135555;27;20655;-88
2022/10/27 01:42:56;;;;;;;3.90;1.17;;;;;;;16.87;48.29;99874.25;5117062;27;20182;-88
2022/10/27 01:45:28;;;;;;;2.60;1.30;;;;;;;16.83;48.53;99877.19;5136047;27;20169;-88
2022/10/27 01:47:55;;;;;;;2.37;0.93;;;;;;;16.88;48.21;99883.00;5135675;27;20155;-88
2022/10/27 01:50:32;;;;;;;2.83;1.53;;;;;;;16.95;48.26;99876.38;5117897;27;20205;-88
2022/10/27 01:52:58;;;;;;;4.63;1.60;;;;;;;16.80;49.32;99870.28;5116943;27;20669;-88
2022/10/27 01:55:44;;;;;;;3.37;1.60;;;;;;;16.85;49.56;99875.31;5117138;27;20179;-88
2022/10/27 01:58:40;;;;;;;2.30;1.30;;;;;;;16.71;50.59;99881.50;5135803;27;20241;-88
2022/10/27 02:01:24;;;;;;;4.87;1.10;;;;;;;16.65;51.26;99881.91;5135106;27;20171;-88
2022/10/27 02:04:22;;;;;;;3.43;1.17;;;;;;;16.64;51.54;99879.38;5135366;27;20163;-88
2022/10/27 02:06:52;;;;;;;2.67;1.40;;;;;;;16.66;51.90;99885.41;5045470;27;20183;-88
2022/10/27 02:09:42;;;;;;;3.83;1.20;;;;;;;16.66;51.45;99888.91;5117980;27;20664;-89
2022/10/27 02:12:25;;;;;;;5.40;1.87;;;;;;;16.63;51.64;99896.19;5116769;27;20600;-88
2022/10/27 02:14:53;;;;;;;7.27;1.77;;;;;;;16.69;51.34;99898.44;5135449;27;20238;-88
2022/10/27 02:17:23;;;;;;;3.40;1.80;;;;;;;16.68;51.30;99888.78;5135642;27;20208;-93
2022/10/27 02:19:51;;;;;;;2.63;1.53;;;;;;;16.63;51.45;99889.09;5117393;27;20170;-93
2022/10/27 02:22:17;;;;;;;3.43;1.33;;;;;;;16.68;51.37;99892.28;5134961;27;20174;-93
2022/10/27 02:24:42;;;;;;;6.10;2.20;;;;;;;16.74;50.63;99898.97;5134968;27;20184;-93
2022/10/27 02:27:11;;;;;;;3.20;1.70;;;;;;;16.65;50.70;99896.94;5134904;27;20257;-93
2022/10/27 02:29:36;;;;;;;4.13;1.43;;;;;;;16.58;50.76;99902.63;5135001;27;20201;-93
2022/10/27 02:32:05;;;;;;;2.87;1.17;;;;;;;16.55;50.74;99908.13;5134715;27;20237;-92
2022/10/27 02:34:32;;;;;;;9.10;1.67;;;;;;;16.48;51.08;99905.94;5117068;27;20178;-93
2022/10/27 02:36:59;;;;;;;6.93;1.97;;;;;;;16.43;51.12;99910.69;5116995;27;20625;-93
2022/10/27 02:39:24;;;;;;;2.87;1.40;;;;;;;16.50;50.85;99914.63;5117281;27;20165;-92
2022/10/27 02:41:50;;;;;;;5.60;1.87;;;;;;;16.39;51.76;99925.03;5117454;27;20180;-93
2022/10/27 02:44:16;;;;;;;5.23;1.37;;;;;;;16.32;51.87;99932.53;5116778;27;20535;-92
2022/10/27 02:46:41;;;;;;;4.30;2.00;;;;;;;16.29;52.12;99932.72;5134485;27;20171;-93
2022/10/27 02:49:07;;;;;;;6.30;1.43;;;;;;;16.18;52.35;99935.19;5134753;27;20585;-93
2022/10/27 02:51:32;;;;;;;5.00;1.30;;;;;;;16.11;52.86;99939.19;5116210;27;20212;-93
2022/10/27 02:53:58;;;;;;;9.40;2.10;;;;;;;16.03;52.99;99936.16;5134942;27;20178;-93
2022/10/27 02:56:23;;;;;;;4.43;1.50;;;;;;;16.06;52.94;99941.25;5115876;27;20638;-92
2022/10/27 02:58:49;;;;;;;3.00;1.50;;;;;;;16.16;52.50;99934.44;5116330;27;20178;-93
2022/10/27 03:01:14;;;;;;;6.03;1.77;;;;;;;16.18;52.35;99940.47;5134353;27;20165;-93
2022/10/27 03:03:40;;;;;;;3.87;2.13;;;;;;;16.20;52.15;99935.94;5134653;27;20207;-93
2022/10/27 03:06:05;;;;;;;4.07;1.60;;;;;;;16.17;52.09;99936.13;5116287;27;20174;-94
2022/10/27 03:08:30;;;;;;;2.57;1.27;;;;;;;16.05;53.06;99946.63;5116563;28;20205;-93
2022/10/27 03:10:56;;;;;;;4.03;1.40;;;;;;;16.01;53.43;99939.84;5134288;27;20653;-93
2022/10/27 03:13:21;;;;;;;6.17;2.23;;;;;;;15.97;53.45;99947.09;5134336;28;20168;-92
2022/10/27 03:15:47;;;;;;;4.87;1.97;;;;;;;15.91;53.74;99950.97;5116630;28;20699;-93
2022/10/27 03:18:12;;;;;;;3.97;1.50;;;;;;;15.90;53.92;99943.16;5116250;28;20181;-94
2022/10/27 03:20:38;;;;;;;4.23;1.80;;;;;;;15.92;53.82;99950.03;5116307;28;20179;-93
2022/10/27 03:23:03;;;;;;;4.33;1.97;;;;;;;15.87;54.37;99948.63;5116053;28;20176;-93
2022/10/27 03:25:29;;;;;;;3.43;1.50;;;;;;;15.93;54.26;99954.38;5116070;28;20260;-92
2022/10/27 03:27:54;;;;;;;3.73;1.47;;;;;;;15.86;54.32;99950.41;5134052;28;20174;-92
2022/10/27 03:30:20;;;;;;;3.47;1.40;;;;;;;15.80;54.85;99948.13;5116516;28;20668;-93
2022/10/27 03:32:51;;;;;;;4.43;1.73;;;;;;;15.76;54.75;99957.19;5134066;28;20180;-92
2022/10/27 03:35:18;;;;;;;4.10;1.90;;;;;;;15.85;54.25;99955.81;5134056;28;20247;-93
2022/10/27 03:37:44;;;;;;;2.87;1.47;;;;;;;15.86;54.14;99957.47;5116151;28;20169;-92
2022/10/27 03:40:10;;;;;;;5.93;2.00;;;;;;;15.77;54.40;99958.06;5115858;28;20186;-92
2022/10/27 03:42:42;;;;;;;4.27;1.83;;;;;;;15.76;54.03;99953.69;5133997;28;20168;-92
2022/10/27 03:45:09;;;;;;;3.40;1.53;;;;;;;15.76;53.80;99967.78;5115924;28;20173;-93
2022/10/27 03:47:35;;;;;;;4.40;1.80;;;;;;;15.82;53.79;99964.78;5115762;28;20183;-92
2022/10/27 03:50:00;;;;;;;6.53;2.17;;;;;;;15.75;53.77;99971.34;5133777;28;20187;-92
2022/10/27 03:52:26;;;;;;;3.90;1.93;;;;;;;15.71;54.03;99977.78;5133804;28;20234;-92
2022/10/27 03:54:51;;;;;;;4.47;1.33;;;;;;;15.64;54.02;99975.59;5133772;28;20163;-92
2022/10/27 03:57:17;;;;;;;3.60;1.80;;;;;;;15.59;54.65;99975.03;5133847;28;20176;-92
2022/10/27 03:59:42;;;;;;;3.53;1.80;;;;;;;15.47;54.86;99979.22;5115709;28;20176;-92
2022/10/27 04:02:08;;;;;;;4.83;2.10;;;;;;;15.48;54.89;99980.09;5116591;28;20173;-93
2022/10/27 04:04:33;;;;;;;3.17;1.47;;;;;;;15.47;54.69;99988.94;5115626;28;20193;-93
2022/10/27 04:06:59;;;;;;;4.57;1.73;;;;;;;15.43;54.82;99990.06;5118178;27;20178;-93
2022/10/27 04:09:24;;;;;;;4.40;1.33;;;;;;;15.46;54.48;99987.25;5119527;27;20176;-93
2022/10/27 04:11:50;;;;;;;3.00;1.30;;;;;;;15.47;54.30;99996.88;5137843;27;20612;-92
2022/10/27 04:14:15;;;;;;;4.03;1.33;;;;;;;15.46;54.04;99993.38;5120381;27;20173;-92
2022/10/27 04:16:41;;;;;;;6.37;1.93;;;;;;;15.49;54.13;99990.56;5137516;27;20628;-92
2022/10/27 04:19:06;;;;;;;3.97;1.30;;;;;;;15.51;54.04;99993.13;5119470;27;20659;-93
2022/10/27 04:21:32;;;;;;;3.70;1.90;;;;;;;15.55;53.69;99992.00;5137807;27;20192;-93
2022/10/27 04:23:57;;;;;;;4.57;1.67;;;;;;;15.57;53.38;99996.25;5120022;27;20340;-92
2022/10/27 04:26:22;;;;;;;4.83;1.80;;;;;;;15.66;53.28;99989.56;5137316;27;20176;-93
2022/10/27 04:28:48;;;;;;;7.53;2.20;;;;;;;15.64;53.79;99994.09;5119157;27;20175;-93
2022/10/27 04:31:13;;;;;;;5.30;1.53;;;;;;;15.64;54.16;100002.88;5137345;27;20311;-92
2022/10/27 04:33:40;;;;;;;8.57;1.63;;;;;;;15.65;54.26;100007.22;5119085;27;20180;-93
2022/10/27 04:36:06;;;;;;;3.53;1.53;;;;;;;15.72;53.68;100005.91;5119097;27;20186;-92
2022/10/27 04:38:31;;;;;;;4.63;1.70;;;;;;;15.75;53.59;100004.84;5118992;27;20656;-92
2022/10/27 04:41:00;;;;;;;4.90;2.23;;;;;;;15.74;54.05;100011.97;5119042;27;20522;-93
2022/10/27 04:43:26;;;;;;;6.23;2.30;;;;;;;15.70;54.35;100006.94;5119203;27;20174;-93
2022/10/27 04:45:51;;;;;;;4.53;1.57;;;;;;;15.70;54.36;100004.28;5137211;27;20170;-93
2022/10/27 04:48:17;;;;;;;3.33;1.60;;;;;;;15.75;54.27;100008.34;5118778;27;20218;-93
2022/10/27 04:50:42;;;;;;;4.77;2.03;;;;;;;15.76;54.19;100009.22;5119285;27;20189;-92
2022/10/27 04:53:07;;;;;;;5.27;2.27;;;;;;;15.80;53.92;100016.84;5118594;27;20256;-92
2022/10/27 04:55:33;;;;;;;4.13;1.93;;;;;;;15.83;53.80;100007.91;5119082;27;20181;-92
2022/10/27 04:57:59;;;;;;;3.33;2.00;;;;;;;15.93;53.17;100015.19;5118829;27;20192;-92
2022/10/27 05:00:26;;;;;;;5.57;1.87;;;;;;;16.02;52.92;100023.50;5119412;27;20261;-91
2022/10/27 05:02:57;;;;;;;4.07;1.87;;;;;;;16.07;52.85;100014.34;5118860;27;20632;-92
2022/10/27 05:05:24;;;;;;;9.80;2.20;;;;;;;16.08;52.58;100018.72;5136446;27;20640;-92
2022/10/27 05:07:54;;;;;;;4.87;1.93;;;;;;;16.04;52.78;100019.81;5118432;27;20183;-92
2022/10/27 05:10:20;;;;;;;4.77;1.90;;;;;;;16.06;52.90;100022.38;5118432;27;20650;-92
2022/10/27 05:12:45;;;;;;;3.93;1.70;;;;;;;16.05;53.55;100024.19;5118725;27;20264;-91
2022/10/27 05:15:11;;;;;;;5.43;2.07;;;;;;;16.06;53.69;100031.19;5118355;27;20302;-92
2022/10/27 05:17:37;;;;;;;5.57;2.23;;;;;;;16.08;53.41;100031.94;5117834;28;20212;-92
2022/10/27 05:20:04;;;;;;;7.43;1.63;;;;;;;16.07;53.52;100037.28;5118479;27;20173;-92
2022/10/27 05:22:29;;;;;;;4.00;1.83;;;;;;;16.26;52.53;100044.03;5118069;27;20170;-92
2022/10/27 05:24:55;;;;;;;6.00;1.60;;;;;;;16.41;52.31;100045.72;5119046;27;20612;-92
2022/10/27 05:27:20;;;;;;;5.40;2.40;;;;;;;16.51;52.32;100054.78;5118057;27;20181;-92
2022/10/27 05:29:45;;;;;;;4.50;1.60;;;;;;;16.68;52.27;100053.78;5118010;27;20186;-91
2022/10/27 05:32:11;;;;;;;3.57;1.53;;;;;;;16.70;53.28;100051.88;5118993;27;20214;-91
2022/10/27 05:34:36;;;;;;;6.27;2.37;;;;;;;16.82;54.11;100053.78;5118365;27;20170;-92
2022/10/27 05:37:02;;;;;;;4.50;2.23;;;;;;;16.86;55.12;100057.06;5117832;27;20679;-91
2022/10/27 05:39:27;;;;;;;4.23;1.50;;;;;;;16.92;55.25;100059.31;5135789;27;20174;-91
2022/10/27 05:41:53;;;;;;;7.03;2.87;;;;;;;17.02;55.16;100061.28;5135776;27;20624;-93
2022/10/27 05:44:18;;;;;;;5.93;2.60;;;;;;;16.95;55.38;100062.63;5117697;27;20183;-92
2022/10/27 05:46:44;;;;;;;17.30;6.60;;;;;;;17.03;53.83;100059.50;5135934;27;20209;-92
2022/10/27 05:49:09;;;;;;;20.73;6.87;;;;;;;17.05;53.91;100069.03;5117805;27;20171;-92
2022/10/27 05:51:35;;;;;;;19.63;7.00;;;;;;;17.20;53.58;100070.69;5117550;27;20484;-92
2022/10/27 05:54:00;;;;;;;12.83;5.73;;;;;;;17.29;53.63;100074.56;5136551;27;20163;-91
2022/10/27 05:56:26;;;;;;;15.03;6.37;;;;;;;17.34;53.58;100072.44;5117547;27;20644;-91
2022/10/27 05:58:51;;;;;;;12.60;5.17;;;;;;;17.48;53.83;100080.31;5135732;27;20218;-92
2022/10/27 06:01:17;;;;;;;11.87;5.90;;;;;;;17.89;53.50;100085.56;5135819;27;20639;-92
2022/10/27 06:03:42;;;;;;;15.60;5.43;;;;;;;18.30;51.72;100082.72;5117638;27;20525;-92
2022/10/27 06:06:08;;;;;;;9.03;4.43;;;;;;;18.46;50.71;100079.84;5117736;27;20277;-92
2022/10/27 06:08:33;;;;;;;5.67;3.03;;;;;;;18.61;50.43;100084.97;5117544;27;20619;-91
2022/10/27 06:11:01;;;;;;;5.73;2.13;;;;;;;18.67;50.43;100089.88;5117167;27;20217;-92
2022/10/27 06:13:26;;;;;;;4.87;2.30;;;;;;;18.76;49.60;100083.88;5135317;27;20228;-91
2022/10/27 06:15:52;;;;;;;3.40;1.40;;;;;;;18.84;49.43;100092.16;5117305;27;20182;-92
2022/10/27 06:18:17;;;;;;;4.40;1.87;;;;;;;18.87;49.08;100088.44;5117615;27;20596;-92
2022/10/27 06:20:43;;;;;;;9.20;2.30;;;;;;;18.72;48.98;100087.72;5117000;27;20174;-92
2022/10/27 06:23:08;;;;;;;4.33;2.10;;;;;;;18.73;49.53;100099.22;5117349;27;20202;-92
2022/10/27 06:25:34;;;;;;;7.37;2.43;;;;;;;18.75;49.41;100097.28;5117038;27;20593;-92
2022/10/27 06:28:00;;;;;;;7.10;2.60;;;;;;;18.85;49.10;100099.19;5135166;27;20171;-92
2022/10/27 06:30:25;;;;;;;4.67;2.50;;;;;;;18.77;49.46;100106.84;5116877;27;20561;-92
2022/10/27 06:32:51;;;;;;;7.83;2.90;;;;;;;18.75;49.35;100110.56;5134851;27;20199;-93
2022/10/27 06:35:17;;;;;;;12.20;3.50;;;;;;;18.69;49.36;100109.19;5116938;27;20178;-93
2022/10/27 06:37:44;;;;;;;9.70;2.97;;;;;;;18.87;49.27;100118.50;5116844;27;20166;-93
2022/10/27 06:40:11;;;;;;;7.87;3.60;;;;;;;18.96;48.85;100104.59;5116860;27;20254;-91
2022/10/27 06:42:37;;;;;;;7.10;3.40;;;;;;;19.21;48.50;100105.47;5116723;27;20202;-92
2022/10/27 06:45:04;;;;;;;7.33;3.37;;;;;;;19.72;47.25;100103.47;5116948;27;20179;-92
2022/10/27 06:47:30;;;;;;;9.93;3.30;;;;;;;20.33;45.19;100100.56;5116621;27;20648;-92
2022/10/27 06:49:55;;;;;;;8.67;3.40;;;;;;;21.21;43.95;100097.03;5116657;27;20227;-93
2022/10/27 06:52:21;;;;;;;7.03;2.93;;;;;;;21.54;42.25;100095.25;5116789;27;20651;-92
2022/10/27 06:54:46;;;;;;;7.33;3.20;;;;;;;21.70;42.41;100095.66;5116671;27;20274;-93
2022/10/27 06:57:12;;;;;;;5.77;2.63;;;;;;;22.17;41.29;100110.41;5135444;27;20238;-92
2022/10/27 06:59:37;;;;;;;8.27;3.17;;;;;;;22.36;40.88;100108.69;5116659;27;20262;-92
2022/10/27 07:02:03;;;;;;;8.50;3.63;;;;;;;22.08;41.21;100106.69;5116570;27;20188;-94
2022/10/27 07:04:29;;;;;;;7.40;3.10;;;;;;;22.02;40.99;100112.53;5116446;27;20229;-94
2022/10/27 07:06:54;;;;;;;8.10;3.50;;;;;;;22.09;41.08;100110.22;5134740;27;20171;-95
2022/10/27 07:09:20;;;;;;;6.33;3.00;;;;;;;22.30;40.89;100114.56;5134527;27;20170;-95
2022/10/27 07:11:45;;;;;;;8.80;3.43;;;;;;;22.35;40.67;100112.31;5116259;27;20740;-92
2022/10/27 07:14:11;;;;;;;7.63;3.53;;;;;;;22.22;41.04;100121.56;5116364;28;20331;-95
2022/10/27 07:16:36;;;;;;;7.67;3.10;;;;;;;22.13;40.93;100120.50;5116374;28;20662;-94
2022/10/27 07:19:02;;;;;;;8.10;3.17;;;;;;;22.09;41.34;100115.56;5111811;28;20179;-91
2022/10/27 07:21:28;;;;;;;5.40;2.30;;;;;;;22.10;41.44;100131.44;5116359;28;20167;-94
2022/10/27 07:23:54;;;;;;;6.87;2.63;;;;;;;22.14;41.53;100127.53;5095719;28;20176;-95
2022/10/27 07:26:19;;;;;;;5.37;3.07;;;;;;;22.11;41.16;100130.47;5095723;28;20263;-94
2022/10/27 07:28:45;;;;;;;7.20;3.37;;;;;;;21.92;41.80;100127.63;5095712;28;20171;-95
2022/10/27 07:31:10;;;;;;;6.40;3.07;;;;;;;21.91;41.72;100129.47;5095483;28;20733;-92
2022/10/27 07:33:35;;;;;;;5.77;2.60;;;;;;;21.95;41.57;100130.91;5113348;28;20258;-92
2022/10/27 07:36:01;;;;;;;9.23;3.87;;;;;;;21.82;42.29;100134.69;5113299;28;20636;-92
2022/10/27 07:38:26;;;;;;;11.00;3.20;;;;;;;21.72;42.27;100133.75;5095854;28;20172;-92
2022/10/27 07:40:52;;;;;;;19.60;5.60;;;;;;;21.79;42.45;100143.81;5096043;28;20171;-94
2022/10/27 07:43:17;;;;;;;7.80;2.87;;;;;;;21.85;41.86;100143.31;5099540;28;20172;-94
2022/10/27 07:45:43;;;;;;;6.37;2.63;;;;;;;21.82;41.75;100145.38;5098740;28;20628;-95
2022/10/27 07:48:13;;;;;;;15.40;4.90;;;;;;;21.75;42.13;100154.88;5099540;28;20625;-93
2022/10/27 07:50:39;;;;;;;21.43;8.07;;;;;;;21.55;42.35;100151.16;5099761;28;20671;-92
2022/10/27 07:53:05;;;;;;;8.30;3.30;;;;;;;21.65;42.45;100145.91;5099314;28;20547;-93
2022/10/27 07:55:34;;;;;;;21.77;7.50;;;;;;;21.64;43.07;100142.41;5099385;28;20243;-92
2022/10/27 07:58:02;;;;;;;6.67;3.37;;;;;;;21.85;42.40;100139.78;5114370;28;20175;-93
2022/10/27 08:00:29;;;;;;;8.40;3.03;;;;;;;22.04;42.88;100146.13;5078719;28;20173;-95
2022/10/27 08:02:58;;;;;;;6.70;2.73;;;;;;;22.04;42.51;100139.94;5078983;28;20168;-95
2022/10/27 08:05:23;;;;;;;8.23;2.17;;;;;;;22.23;42.39;100144.59;5078641;28;20181;-95
2022/10/27 08:07:49;;;;;;;5.17;2.60;;;;;;;22.43;42.42;100138.41;5078824;28;20176;-92
2022/10/27 08:10:14;;;;;;;4.27;1.93;;;;;;;22.63;41.64;100138.44;5078665;28;20176;-93
2022/10/27 08:12:43;;;;;;;4.70;2.30;;;;;;;22.82;41.09;100140.34;5078756;28;20204;-94
2022/10/27 08:15:10;;;;;;;5.83;2.27;;;;;;;22.89;41.20;100146.00;5078607;28;20176;-93
2022/10/27 08:17:38;;;;;;;3.73;1.80;;;;;;;23.12;40.51;100134.13;5096522;28;20249;-94
2022/10/27 08:20:05;;;;;;;4.83;1.77;;;;;;;23.33;40.09;100134.03;5078772;28;20168;-92
2022/10/27 08:22:30;;;;;;;8.17;2.10;;;;;;;23.55;39.18;100132.03;5078654;28;20602;-93
2022/10/27 08:24:55;;;;;;;6.63;2.50;;;;;;;23.78;39.15;100133.44;5078761;28;20169;-93
2022/10/27 08:27:21;;;;;;;5.03;1.73;;;;;;;23.76;38.87;100123.88;5096359;28;20208;-94
2022/10/27 08:29:46;;;;;;;3.00;1.63;;;;;;;23.91;38.48;100126.94;5078573;28;20187;-94
2022/10/27 08:32:12;;;;;;;3.13;1.53;;;;;;;24.06;37.50;100130.88;5078645;28;20540;-94
2022/10/27 08:34:37;;;;;;;4.90;1.80;;;;;;;24.15;38.40;100125.56;5078579;28;20249;-94
2022/10/27 08:37:03;;;;;;;4.07;1.30;;;;;;;24.36;37.32;100125.41;5078605;28;20169;-92
2022/10/27 08:39:28;;;;;;;4.70;2.00;;;;;;;24.56;38.38;100129.72;5078451;28;20618;-93
2022/10/27 08:42:31;;;;;;;4.43;1.33;;;;;;;24.83;38.34;100127.13;5078582;28;20575;-93
2022/10/27 08:45:07;;;;;;;4.83;1.57;;;;;;;25.03;35.92;100126.03;5078493;28;20180;-94
2022/10/27 08:47:32;;;;;;;6.13;1.90;;;;;;;25.30;35.83;100114.47;5078683;28;20167;-94
2022/10/27 08:50:13;;;;;;;4.47;1.43;;;;;;;25.55;35.11;100119.13;5096513;28;20186;-94
2022/10/27 08:52:45;;;;;;;3.30;1.43;;;;;;;25.70;36.31;100121.28;5089019;28;20214;-94
2022/10/27 08:55:13;;;;;;;2.87;1.33;;;;;;;25.71;36.06;100121.13;5099899;28;20254;-94
2022/10/27 08:58:27;;;;;;;4.57;1.00;;;;;;;25.99;34.14;100122.75;5098698;28;20222;-95
2022/10/27 09:00:58;;;;;;;2.67;0.90;;;;;;;26.00;34.18;100120.88;5081656;28;20195;-94
2022/10/27 09:03:53;;;;;;;3.70;1.37;;;;;;;25.70;34.36;100121.28;5098913;28;20168;-94
2022/10/27 09:06:57;;;;;;;3.10;1.23;;;;;;;25.70;35.32;100115.91;5099987;28;20172;-94
2022/10/27 09:09:43;;;;;;;1.90;1.07;;;;;;;25.95;35.19;100112.44;5069355;28;20187;-94
2022/10/27 09:12:27;;;;;;;3.57;1.13;;;;;;;26.08;34.53;100124.50;5099189;28;20183;-94
2022/10/27 09:15:18;;;;;;;2.53;1.13;;;;;;;26.18;34.51;100119.06;5084029;28;20194;-95
2022/10/27 09:17:53;;;;;;;2.63;1.43;;;;;;;26.15;34.72;100109.47;5079634;28;20161;-95
2022/10/27 09:20:34;;;;;;;3.20;1.20;;;;;;;26.39;34.67;100113.34;5079330;28;20263;-94
2022/10/27 09:23:03;;;;;;;4.07;1.30;;;;;;;26.42;34.01;100113.00;5078930;28;20200;-95
2022/10/27 09:25:29;;;;;;;5.90;1.00;;;;;;;26.44;34.35;100111.84;5077990;28;20173;-94
2022/10/27 09:27:58;;;;;;;4.03;1.10;;;;;;;26.39;33.82;100111.47;5078228;28;20541;-95
2022/10/27 09:30:31;;;;;;;2.00;0.97;;;;;;;26.69;33.37;100102.94;5077974;28;20193;-95
2022/10/27 09:32:56;;;;;;;3.70;0.90;;;;;;;26.88;32.48;100104.59;5078122;28;20204;-93
2022/10/27 09:35:24;;;;;;;6.47;1.67;;;;;;;26.94;32.54;100106.63;5095268;28;20633;-94
2022/10/27 09:37:55;;;;;;;2.13;1.00;;;;;;;26.78;33.36;100103.88;5077570;28;20190;-93
2022/10/27 09:40:24;;;;;;;4.27;1.70;;;;;;;26.89;32.98;100106.25;5078492;28;20606;-95
2022/10/27 09:42:53;;;;;;;3.27;1.80;;;;;;;26.86;33.17;100095.81;5078185;28;20179;-96
2022/10/27 09:45:22;;;;;;;3.57;1.60;;;;;;;27.02;32.61;100093.19;5077491;28;20183;-94
2022/10/27 09:47:53;;;;;;;4.07;1.70;;;;;;;27.20;32.90;100091.25;5075615;28;20180;-94
2022/10/27 09:50:49;;;;;;;4.60;1.55;;;;;;;27.37;32.26;100095.69;5075373;28;20207;-93
2022/10/27 09:53:42;;;;;;;4.63;1.38;;;;;;;27.50;31.98;100094.38;5031580;28;20227;-94
2022/10/27 09:56:27;;;;;;;4.30;1.33;;;;;;;27.63;32.16;100092.06;5094048;28;20179;-94
2022/10/27 09:59:05;;;;;;;5.28;1.50;;;;;;;27.56;31.37;100082.97;5094006;28;20251;-95
2022/10/27 10:01:48;;;;;;;4.40;1.33;;;;;;;27.28;32.11;100083.19;5077470;28;20181;-93
2022/10/27 10:04:25;;;;;;;2.95;1.40;;;;;;;27.49;32.30;100090.03;5093717;28;20168;-94
2022/10/27 10:06:56;;;;;;;3.33;1.60;;;;;;;27.44;31.52;100087.81;5093876;28;20267;-94
2022/10/27 10:09:32;;;;;;;4.30;1.27;;;;;;;27.72;31.94;100078.44;5094039;28;20187;-94
2022/10/27 10:12:16;;;;;;;4.00;1.67;;;;;;;27.99;31.33;100074.56;5093699;28;20192;-94
2022/10/27 10:14:42;;;;;;;2.70;1.38;;;;;;;28.08;31.23;100072.75;5093947;28;20701;-94
2022/10/27 10:17:26;;;;;;;3.47;1.70;;;;;;;28.28;31.14;100074.91;5093921;28;20271;-94
2022/10/27 10:19:56;;;;;;;3.22;1.40;;;;;;;28.18;31.17;100070.69;5093628;28;20263;-94
2022/10/27 10:22:26;;;;;;;3.13;1.23;;;;;;;28.38;30.94;100070.16;5093533;28;20263;-94
2022/10/27 10:24:53;;;;;;;1.63;1.00;;;;;;;28.78;30.06;100065.69;5093547;28;20169;-93
2022/10/27 10:27:31;;;;;;;3.55;1.40;;;;;;;28.91;29.88;100058.72;5093620;28;20172;-94
2022/10/27 10:30:01;;;;;;;2.47;1.08;;;;;;;28.91;29.29;100060.56;5093542;28;20170;-95
2022/10/27 10:32:30;;;;;;;3.45;1.50;;;;;;;28.87;29.50;100068.22;5093231;28;20283;-93
2022/10/27 10:34:57;;;;;;;3.13;1.40;;;;;;;28.67;30.76;100072.31;5093803;28;20572;-94
2022/10/27 10:37:42;;;;;;;3.72;1.73;;;;;;;28.49;30.42;100068.97;5093170;28;20173;-93
2022/10/27 10:40:13;;;;;;;2.55;1.23;;;;;;;28.01;30.43;100059.94;5093538;28;20207;-95
2022/10/27 10:42:41;;;;;;;2.42;0.93;;;;;;;28.10;30.31;100055.38;5093248;28;20184;-94
2022/10/27 10:45:21;;;;;;;2.15;0.73;;;;;;;28.08;31.07;100057.41;5093375;28;20255;-94
2022/10/27 10:47:54;;;;;;;2.13;0.85;;;;;;;28.30;30.43;100054.00;5094312;28;20153;-94
2022/10/27 10:50:19;;;;;;;4.88;1.30;;;;;;;28.41;30.41;100061.72;5093179;28;20164;-95
2022/10/27 10:52:51;;;;;;;2.47;1.00;;;;;;;28.61;30.25;100054.97;5105568;28;20586;-95
2022/10/27 10:55:35;;;;;;;1.95;1.10;;;;;;;28.49;30.52;100050.91;5113679;28;20521;-95
2022/10/27 10:58:01;;;;;;;2.88;1.20;;;;;;;28.87;29.58;100046.63;5113402;28;20189;-94
2022/10/27 11:00:27;;;;;;;3.58;1.45;;;;;;;28.97;30.07;100047.22;5113355;28;20609;-95
2022/10/27 11:03:27;;;;;;;6.03;2.33;;;;;;;29.10;29.14;100047.50;5113614;28;20609;-94
2022/10/27 11:05:57;;;;;;;3.25;1.75;;;;;;;29.05;28.89;100035.56;5114122;28;20175;-94
2022/10/27 11:08:28;;;;;;;4.00;1.58;;;;;;;29.36;28.75;100036.41;5113544;28;20167;-93
2022/10/27 11:10:55;;;;;;;2.47;1.27;;;;;;;29.62;28.28;100038.75;5113985;28;20188;-94
2022/10/27 11:13:43;;;;;;;4.32;0.85;;;;;;;29.76;28.09;100041.53;5113201;28;20266;-95
2022/10/27 11:16:14;;;;;;;7.93;1.27;;;;;;;29.83;27.79;100036.25;5081800;28;20183;-94
2022/10/27 11:18:53;;;;;;;5.32;1.50;;;;;;;29.90;27.74;100029.06;5113752;28;20176;-93
2022/10/27 11:21:29;;;;;;;2.55;1.05;;;;;;;29.76;27.76;100025.31;5114189;28;20156;-95
2022/10/27 11:24:09;;;;;;;2.10;0.70;;;;;;;29.84;27.64;100035.25;5113960;28;20175;-95
2022/10/27 11:26:47;;;;;;;1.55;0.73;;;;;;;29.66;27.64;100023.88;5113098;28;20582;-94
2022/10/27 11:29:18;;;;;;;2.50;1.10;;;;;;;29.86;27.77;100025.06;5113106;28;20239;-95
2022/10/27 11:32:39;;;;;;;2.35;0.90;;;;;;;29.95;27.42;100023.13;5112721;28;20247;-92
2022/10/27 11:35:29;;;;;;;2.50;1.17;;;;;;;30.07;27.01;100019.81;5064888;28;20187;-93
2022/10/27 11:38:20;;;;;;;4.53;0.98;;;;;;;29.91;27.16;100017.25;5112900;28;20168;-94